Time;durP1;ratioP1;P1;durP2;ratioP2;P2;SDS_P1;SDS_P2;PMS_P1;PMS_P2;Temp;Humidity;BMP_temperature;BMP_pressure;BME280_temperature;BME280_humidity;BME280_pressure;Samples;Min_cycle;Max_cycle;Signal;HPM_P1;HPM_P2
2022/05/14 00:00:35;;;;;;;5.43;3.37;;;;;;;;;;6205187;28;20241;-69
2022/05/14 00:03:56;;;;;;;8.77;3.80;;;;;;;;;;6206387;28;20229;-68
2022/05/14 00:07:16;;;;;;;11.10;4.33;;;;;;;;;;6201622;28;20221;-67
2022/05/14 00:13:03;;;;;;;8.67;4.30;;;;;;;;;;6203527;28;20263;-68
2022/05/14 00:14:18;;;;;;;13.13;5.60;;;;;;;;;;6204649;28;20240;-67
2022/05/14 00:17:39;;;;;;;13.43;5.17;;;;;;;;;;6206770;28;20241;-68
2022/05/14 00:21:00;;;;;;;8.97;4.53;;;;;;;;;;6204646;28;20228;-67
2022/05/14 00:24:22;;;;;;;6.33;4.03;;;;;;;;;;6199576;28;20221;-66
2022/05/14 00:27:43;;;;;;;10.87;4.40;;;;;;;;;;6205248;28;20245;-66
2022/05/14 00:31:03;;;;;;;12.00;5.20;;;;;;;;;;6203447;28;20253;-67
2022/05/14 00:34:25;;;;;;;10.03;4.87;;;;;;;;;;6207370;28;20224;-68
2022/05/14 00:37:46;;;;;;;9.53;5.00;;;;;;;;;;6207432;28;20225;-67
2022/05/14 00:41:10;;;;;;;8.67;4.40;;;;;;;;;;6204455;28;20666;-67
2022/05/14 00:44:32;;;;;;;11.07;5.23;;;;;;;;;;6207584;28;20225;-68
2022/05/14 00:47:55;;;;;;;8.07;4.37;;;;;;;;;;6204451;28;20232;-68
2022/05/14 00:51:20;;;;;;;6.27;4.67;;;;;;;;;;6207116;28;20229;-67
2022/05/14 00:54:42;;;;;;;9.17;5.47;;;;;;;;;;6200015;28;20509;-66
2022/05/14 00:58:03;;;;;;;12.97;5.60;;;;;;;;;;6205842;28;20605;-67
2022/05/14 01:01:24;;;;;;;13.07;6.07;;;;;;;;;;6206763;28;20225;-66
2022/05/14 01:04:45;;;;;;;11.80;5.13;;;;;;;;;;6202269;28;21323;-68
2022/05/14 01:08:07;;;;;;;15.77;4.93;;;;;;;;;;6205132;28;20622;-66
2022/05/14 01:11:28;;;;;;;8.07;4.77;;;;;;;;;;6201332;28;20244;-66
2022/05/14 01:14:49;;;;;;;8.63;5.30;;;;;;;;;;6214450;28;20321;-69
2022/05/14 01:18:10;;;;;;;8.67;4.97;;;;;;;;;;6206081;28;20772;-67
2022/05/14 01:21:34;;;;;;;10.43;4.93;;;;;;;;;;6206740;28;20237;-68
2022/05/14 01:28:40;;;;;;;8.07;5.10;;;;;;;;;;6204157;28;20229;-68
2022/05/14 01:32:02;;;;;;;11.43;5.20;;;;;;;;;;6205950;28;20237;-68
2022/05/14 01:35:24;;;;;;;14.70;5.80;;;;;;;;;;6205560;28;20272;-68
2022/05/14 01:38:44;;;;;;;7.80;4.77;;;;;;;;;;6201710;28;20499;-67
2022/05/14 01:42:05;;;;;;;10.80;5.93;;;;;;;;;;6209628;28;20229;-68
2022/05/14 01:45:28;;;;;;;8.07;5.37;;;;;;;;;;6217884;28;20249;-68
2022/05/14 01:48:49;;;;;;;11.23;5.77;;;;;;;;;;6193495;28;20225;-68
2022/05/14 01:52:10;;;;;;;8.23;5.67;;;;;;;;;;6205571;28;20257;-68
2022/05/14 01:55:31;;;;;;;14.37;5.07;;;;;;;;;;6202810;28;20233;-67
2022/05/14 01:58:52;;;;;;;10.77;5.27;;;;;;;;;;6201002;28;20237;-68
2022/05/14 02:02:17;;;;;;;11.47;5.07;;;;;;;;;;6203514;28;20225;-68
2022/05/14 02:05:37;;;;;;;7.37;5.37;;;;;;;;;;6208092;28;20257;-67
2022/05/14 02:08:58;;;;;;;11.47;6.37;;;;;;;;;;6225586;28;20632;-67
2022/05/14 02:12:19;;;;;;;10.40;5.97;;;;;;;;;;6208143;28;20237;-68
2022/05/14 02:15:40;;;;;;;7.93;4.67;;;;;;;;;;6204068;28;20234;-68
2022/05/14 02:19:04;;;;;;;12.03;5.20;;;;;;;;;;6200137;28;20239;-67
2022/05/14 02:22:24;;;;;;;11.23;5.33;;;;;;;;;;6216749;28;20323;-68
2022/05/14 02:25:45;;;;;;;10.60;5.07;;;;;;;;;;6207440;28;20312;-69
2022/05/14 02:29:06;;;;;;;6.63;4.87;;;;;;;;;;6219808;28;20229;-68
2022/05/14 02:32:27;;;;;;;8.87;5.20;;;;;;;;;;6210293;28;20232;-67
2022/05/14 02:35:49;;;;;;;12.00;5.90;;;;;;;;;;6210748;28;20504;-68
2022/05/14 02:39:10;;;;;;;11.67;4.67;;;;;;;;;;6207507;28;20237;-67
2022/05/14 02:42:31;;;;;;;11.63;5.23;;;;;;;;;;6211477;28;20233;-68
2022/05/14 02:45:52;;;;;;;6.27;4.77;;;;;;;;;;6207047;28;20229;-67
2022/05/14 02:49:13;;;;;;;10.40;5.87;;;;;;;;;;6206230;28;20232;-68
2022/05/14 02:52:35;;;;;;;6.60;5.20;;;;;;;;;;6211438;28;20316;-69
2022/05/14 02:55:56;;;;;;;9.03;4.93;;;;;;;;;;6217096;28;20225;-68
2022/05/14 02:59:17;;;;;;;7.13;5.10;;;;;;;;;;6218945;28;20241;-68
2022/05/14 03:02:38;;;;;;;8.17;5.20;;;;;;;;;;6213095;28;20233;-67
2022/05/14 03:05:59;;;;;;;9.00;5.27;;;;;;;;;;6211488;28;20233;-68
2022/05/14 03:09:21;;;;;;;13.07;5.30;;;;;;;;;;6199830;28;20514;-68
2022/05/14 03:12:42;;;;;;;9.43;5.10;;;;;;;;;;6209852;28;20237;-67
2022/05/14 03:16:03;;;;;;;10.13;6.63;;;;;;;;;;6215546;28;20240;-69
2022/05/14 03:19:24;;;;;;;9.00;5.90;;;;;;;;;;6205623;28;20609;-68
2022/05/14 03:22:45;;;;;;;15.27;6.07;;;;;;;;;;6204785;28;20233;-67
2022/05/14 03:26:07;;;;;;;10.03;5.33;;;;;;;;;;6203490;28;20246;-68
2022/05/14 03:29:27;;;;;;;9.87;5.53;;;;;;;;;;6208356;28;20225;-67
2022/05/14 03:32:48;;;;;;;10.20;5.87;;;;;;;;;;6207265;28;20241;-67
2022/05/14 03:36:09;;;;;;;10.13;5.63;;;;;;;;;;6213903;28;20249;-68
2022/05/14 03:39:30;;;;;;;10.73;5.57;;;;;;;;;;6211865;28;20244;-66
2022/05/14 03:42:52;;;;;;;9.50;5.07;;;;;;;;;;6211870;28;20244;-69
2022/05/14 03:46:13;;;;;;;7.23;5.57;;;;;;;;;;6212770;28;20878;-67
2022/05/14 03:49:34;;;;;;;7.57;5.47;;;;;;;;;;6202857;28;20237;-69
2022/05/14 03:52:55;;;;;;;11.57;6.63;;;;;;;;;;6211548;28;20241;-68
2022/05/14 03:56:15;;;;;;;14.27;6.93;;;;;;;;;;6209797;28;20232;-67
2022/05/14 03:59:37;;;;;;;12.73;6.50;;;;;;;;;;6205823;28;20690;-67
2022/05/14 04:02:58;;;;;;;8.67;5.43;;;;;;;;;;6197719;28;20224;-67
2022/05/14 04:06:19;;;;;;;14.23;6.30;;;;;;;;;;6209906;28;20312;-67
2022/05/14 04:09:40;;;;;;;13.20;6.87;;;;;;;;;;6210828;28;20228;-68
2022/05/14 04:13:01;;;;;;;11.00;6.20;;;;;;;;;;6209659;28;20221;-68
2022/05/14 04:16:23;;;;;;;13.47;6.80;;;;;;;;;;6211511;28;20220;-69
2022/05/14 04:19:44;;;;;;;14.83;7.07;;;;;;;;;;6210225;28;20229;-67
2022/05/14 04:23:05;;;;;;;17.37;8.23;;;;;;;;;;6223775;28;20226;-67
2022/05/14 04:26:26;;;;;;;10.50;5.47;;;;;;;;;;6210289;28;20229;-66
2022/05/14 04:29:47;;;;;;;17.67;7.20;;;;;;;;;;6200563;28;20229;-68
2022/05/14 04:33:10;;;;;;;10.03;5.90;;;;;;;;;;6206889;28;20659;-68
2022/05/14 04:36:31;;;;;;;8.03;5.80;;;;;;;;;;6209214;28;20234;-67
2022/05/14 04:39:52;;;;;;;10.77;5.77;;;;;;;;;;6203418;28;20234;-68
2022/05/14 04:43:14;;;;;;;11.53;6.23;;;;;;;;;;6207309;28;20228;-68
2022/05/14 04:46:35;;;;;;;11.10;6.43;;;;;;;;;;6210609;28;20347;-66
2022/05/14 04:49:57;;;;;;;8.80;6.20;;;;;;;;;;6205587;28;20225;-68
2022/05/14 04:53:17;;;;;;;12.87;5.77;;;;;;;;;;6206739;28;20237;-67
2022/05/14 04:56:38;;;;;;;11.93;7.00;;;;;;;;;;6209044;28;20233;-68
2022/05/14 04:59:59;;;;;;;16.10;8.30;;;;;;;;;;6229869;28;20229;-68
2022/05/14 05:03:20;;;;;;;10.90;7.00;;;;;;;;;;6214028;28;20233;-68
2022/05/14 05:06:47;;;;;;;15.23;7.27;;;;;;;;;;6211774;28;20229;-67
2022/05/14 05:10:09;;;;;;;10.53;6.23;;;;;;;;;;6199413;28;20226;-68
2022/05/14 05:13:30;;;;;;;14.27;7.20;;;;;;;;;;6201019;28;20241;-67
2022/05/14 05:16:50;;;;;;;12.13;6.87;;;;;;;;;;6204152;28;20256;-67
2022/05/14 05:20:12;;;;;;;11.50;6.73;;;;;;;;;;6202572;28;20618;-67
2022/05/14 05:23:33;;;;;;;13.43;7.27;;;;;;;;;;6205587;28;20233;-68
2022/05/14 05:26:54;;;;;;;14.40;7.47;;;;;;;;;;6207074;28;20669;-67
2022/05/14 05:30:14;;;;;;;11.10;6.10;;;;;;;;;;6203991;28;20499;-67
2022/05/14 05:33:35;;;;;;;11.73;7.00;;;;;;;;;;6207251;28;20253;-68
2022/05/14 05:36:55;;;;;;;14.47;7.63;;;;;;;;;;6208951;28;20233;-68
2022/05/14 05:40:17;;;;;;;11.60;6.13;;;;;;;;;;6206231;28;20241;-68
2022/05/14 05:43:38;;;;;;;10.27;5.77;;;;;;;;;;6206663;28;20248;-67
2022/05/14 05:46:58;;;;;;;10.47;6.37;;;;;;;;;;6199940;28;20245;-69
2022/05/14 05:50:19;;;;;;;14.27;6.47;;;;;;;;;;6206875;28;20236;-68
2022/05/14 05:57:28;;;;;;;13.53;7.30;;;;;;;;;;6201127;28;20337;-68
2022/05/14 06:00:49;;;;;;;15.30;6.57;;;;;;;;;;6213940;28;20709;-66
2022/05/14 06:04:09;;;;;;;15.07;6.63;;;;;;;;;;6206252;28;20237;-68
2022/05/14 06:07:30;;;;;;;14.73;6.93;;;;;;;;;;6208591;28;20226;-66
2022/05/14 06:10:50;;;;;;;16.10;6.43;;;;;;;;;;6208255;28;20233;-68
2022/05/14 06:14:13;;;;;;;15.93;6.90;;;;;;;;;;6205139;28;20634;-68
2022/05/14 06:17:33;;;;;;;13.50;6.73;;;;;;;;;;6210903;28;20245;-67
2022/05/14 06:20:54;;;;;;;15.97;7.60;;;;;;;;;;6206012;28;20699;-67
2022/05/14 06:24:14;;;;;;;11.93;5.60;;;;;;;;;;6203663;28;20523;-67
2022/05/14 06:27:35;;;;;;;20.60;8.17;;;;;;;;;;6207435;28;20280;-67
2022/05/14 06:30:57;;;;;;;13.67;6.70;;;;;;;;;;6207955;28;20237;-67
2022/05/14 06:34:18;;;;;;;19.33;7.90;;;;;;;;;;6219070;28;20253;-67
2022/05/14 06:37:39;;;;;;;21.50;7.33;;;;;;;;;;6207743;28;20256;-68
2022/05/14 06:41:04;;;;;;;12.60;7.03;;;;;;;;;;6209979;28;20639;-66
2022/05/14 06:44:25;;;;;;;15.70;7.43;;;;;;;;;;6215821;28;20229;-67
2022/05/14 06:47:47;;;;;;;13.00;6.73;;;;;;;;;;6196008;28;20237;-67
2022/05/14 06:51:11;;;;;;;14.87;6.77;;;;;;;;;;6198861;28;20233;-67
2022/05/14 06:54:32;;;;;;;20.40;7.80;;;;;;;;;;6204381;28;20257;-68
2022/05/14 06:57:53;;;;;;;14.70;7.37;;;;;;;;;;6202148;28;20262;-66
2022/05/14 07:01:14;;;;;;;11.87;6.27;;;;;;;;;;6205747;28;20237;-66
2022/05/14 07:08:13;;;;;;;17.47;6.83;;;;;;;;;;6202090;28;20228;-66
2022/05/14 07:11:34;;;;;;;18.13;7.07;;;;;;;;;;6201219;28;20241;-65
2022/05/14 07:14:56;;;;;;;15.53;7.37;;;;;;;;;;6202910;28;20759;-65
2022/05/14 07:18:16;;;;;;;13.20;6.70;;;;;;;;;;6201764;28;20225;-66
2022/05/14 07:21:40;;;;;;;19.00;7.20;;;;;;;;;;6217292;28;20610;-65
2022/05/14 07:25:00;;;;;;;19.97;7.43;;;;;;;;;;6221427;28;20240;-65
2022/05/14 07:28:21;;;;;;;18.50;6.27;;;;;;;;;;6211506;28;20320;-64
2022/05/14 07:31:42;;;;;;;14.70;6.43;;;;;;;;;;6210491;28;20237;-66
2022/05/14 07:35:02;;;;;;;12.47;5.97;;;;;;;;;;6218383;28;20681;-66
2022/05/14 07:38:24;;;;;;;17.93;6.27;;;;;;;;;;6208257;28;20229;-64
2022/05/14 07:41:46;;;;;;;14.93;6.97;;;;;;;;;;6207716;28;20353;-65
2022/05/14 07:45:08;;;;;;;14.57;6.47;;;;;;;;;;6215424;28;20245;-64
2022/05/14 07:48:30;;;;;;;13.10;6.33;;;;;;;;;;6211664;28;20328;-65
2022/05/14 07:51:51;;;;;;;15.93;6.87;;;;;;;;;;6209681;28;20232;-65
2022/05/14 07:55:13;;;;;;;14.17;6.90;;;;;;;;;;6197819;28;20233;-66
2022/05/14 07:58:33;;;;;;;12.93;5.67;;;;;;;;;;6197663;28;20599;-65
2022/05/14 08:01:54;;;;;;;12.07;5.53;;;;;;;;;;6204274;28;20515;-66
2022/05/14 08:05:15;;;;;;;12.17;5.93;;;;;;;;;;6200091;28;20232;-67
2022/05/14 08:08:36;;;;;;;16.00;5.43;;;;;;;;;;6201696;28;20278;-66
2022/05/14 08:11:59;;;;;;;15.30;6.13;;;;;;;;;;6208441;28;20237;-67
2022/05/14 08:15:19;;;;;;;11.77;5.43;;;;;;;;;;6203435;28;20237;-66
2022/05/14 08:18:40;;;;;;;13.00;5.07;;;;;;;;;;6202333;28;20327;-66
2022/05/14 08:25:47;;;;;;;12.03;5.83;;;;;;;;;;6183508;28;20237;-66
2022/05/14 08:29:09;;;;;;;12.67;4.93;;;;;;;;;;6207525;28;20498;-65
2022/05/14 08:32:29;;;;;;;10.50;4.50;;;;;;;;;;6200117;28;20252;-65
2022/05/14 08:35:50;;;;;;;12.27;6.27;;;;;;;;;;6209419;28;20233;-66
2022/05/14 08:39:11;;;;;;;16.23;6.23;;;;;;;;;;6202654;28;20241;-66
2022/05/14 08:42:32;;;;;;;15.77;6.23;;;;;;;;;;6199212;28;20248;-65
2022/05/14 08:45:55;;;;;;;10.80;3.80;;;;;;;;;;6204463;28;20236;-64
2022/05/14 08:49:17;;;;;;;10.70;4.30;;;;;;;;;;6205984;28;20514;-65
2022/05/14 08:52:39;;;;;;;12.33;5.43;;;;;;;;;;6198244;28;20233;-64
2022/05/14 08:56:08;;;;;;;12.20;5.17;;;;;;;;;;6201926;28;20236;-64
2022/05/14 08:59:41;;;;;;;11.23;4.73;;;;;;;;;;6198205;28;20225;-65
2022/05/14 09:03:03;;;;;;;10.70;4.82;;;;;;;;;;6204845;28;20256;-66
2022/05/14 09:06:23;;;;;;;14.27;7.53;;;;;;;;;;6204959;28;20229;-63
2022/05/14 09:09:48;;;;;;;7.83;3.40;;;;;;;;;;6201811;28;20228;-65
2022/05/14 09:13:13;;;;;;;7.45;2.92;;;;;;;;;;6200173;28;20237;-65
2022/05/14 09:16:37;;;;;;;8.10;3.17;;;;;;;;;;6202601;28;20233;-65
2022/05/14 09:20:00;;;;;;;7.78;3.30;;;;;;;;;;6197298;28;20229;-64
2022/05/14 09:23:25;;;;;;;8.98;3.30;;;;;;;;;;6205220;28;20225;-65
2022/05/14 09:26:46;;;;;;;7.72;4.18;;;;;;;;;;6206406;28;20256;-66
2022/05/14 09:30:09;;;;;;;8.00;3.93;;;;;;;;;;6191088;28;20916;-66
2022/05/14 09:33:37;;;;;;;12.95;4.20;;;;;;;;;;6211054;28;20229;-66
2022/05/14 09:37:06;;;;;;;8.73;3.37;;;;;;;;;;6216786;28;20319;-68
2022/05/14 09:40:29;;;;;;;6.32;2.72;;;;;;;;;;6212989;28;20228;-66
2022/05/14 09:43:52;;;;;;;8.00;3.77;;;;;;;;;;6196400;28;20232;-65
2022/05/14 09:47:13;;;;;;;6.65;3.40;;;;;;;;;;6209744;28;20248;-67
2022/05/14 09:50:34;;;;;;;7.28;3.67;;;;;;;;;;6196975;28;20260;-66
2022/05/14 09:53:56;;;;;;;7.82;3.30;;;;;;;;;;6195802;28;20252;-66
2022/05/14 09:57:23;;;;;;;10.50;3.90;;;;;;;;;;6212219;28;20228;-66
2022/05/14 10:00:49;;;;;;;8.35;3.20;;;;;;;;;;6174070;28;20229;-65
2022/05/14 10:04:19;;;;;;;9.60;3.90;;;;;;;;;;6174281;28;20682;-65
2022/05/14 10:07:43;;;;;;;8.05;4.18;;;;;;;;;;6160224;28;20229;-64
2022/05/14 10:11:09;;;;;;;11.93;3.53;;;;;;;;;;6152694;28;20237;-66
2022/05/14 10:14:35;;;;;;;6.37;2.87;;;;;;;;;;6146484;28;20238;-66
2022/05/14 10:18:00;;;;;;;10.33;4.90;;;;;;;;;;6161723;28;20236;-67
2022/05/14 10:21:25;;;;;;;9.18;3.28;;;;;;;;;;6165403;28;20620;-67
2022/05/14 10:28:36;;;;;;;4.72;3.00;;;;;;;;;;6157451;28;20632;-68
2022/05/14 10:31:59;;;;;;;6.63;2.80;;;;;;;;;;6160903;28;20237;-68
2022/05/14 10:35:24;;;;;;;10.23;4.68;;;;;;;;;;6166093;28;20233;-67
2022/05/14 10:38:45;;;;;;;8.13;3.30;;;;;;;;;;6155295;28;20798;-68
2022/05/14 10:42:09;;;;;;;6.70;3.00;;;;;;;;;;6164009;28;20234;-67
2022/05/14 10:45:34;;;;;;;7.03;3.70;;;;;;;;;;6168753;28;20819;-67
2022/05/14 10:48:56;;;;;;;8.67;2.90;;;;;;;;;;6156688;28;20261;-68
2022/05/14 10:52:17;;;;;;;8.73;3.08;;;;;;;;;;6189251;28;20639;-68
2022/05/14 10:55:45;;;;;;;10.17;4.20;;;;;;;;;;6207248;28;20242;-69
2022/05/14 10:59:06;;;;;;;9.98;4.25;;;;;;;;;;6187774;28;20240;-66
2022/05/14 11:02:50;;;;;;;7.68;3.22;;;;;;;;;;6201909;28;20241;-68
2022/05/14 11:06:12;;;;;;;9.23;3.30;;;;;;;;;;6210210;28;20256;-66
2022/05/14 11:09:37;;;;;;;10.05;3.90;;;;;;;;;;6201390;28;20233;-71
2022/05/14 11:13:08;;;;;;;11.85;5.05;;;;;;;;;;6204839;28;21048;-67
2022/05/14 11:16:36;;;;;;;8.88;3.42;;;;;;;;;;6206927;28;20618;-70
2022/05/14 11:20:09;;;;;;;10.25;4.28;;;;;;;;;;6201354;28;20228;-69
2022/05/14 11:23:30;;;;;;;6.70;3.60;;;;;;;;;;6203312;28;22812;-71
2022/05/14 11:26:51;;;;;;;20.65;5.00;;;;;;;;;;6200544;28;20229;-70
2022/05/14 11:30:13;;;;;;;8.48;3.63;;;;;;;;;;6202755;28;20312;-68
2022/05/14 11:33:34;;;;;;;13.18;4.20;;;;;;;;;;6207672;28;20666;-72
2022/05/14 11:36:57;;;;;;;11.00;3.70;;;;;;;;;;6197788;28;20244;-69
2022/05/14 11:40:27;;;;;;;9.32;4.30;;;;;;;;;;6201170;28;20678;-71
2022/05/14 11:43:50;;;;;;;11.32;3.58;;;;;;;;;;6192072;28;20241;-77
2022/05/14 11:47:23;;;;;;;8.93;3.90;;;;;;;;;;6201320;28;20835;-68
2022/05/14 11:50:48;;;;;;;8.73;3.80;;;;;;;;;;6192280;28;20646;-70
2022/05/14 11:54:11;;;;;;;9.77;3.22;;;;;;;;;;6196895;28;20312;-69
2022/05/14 11:57:35;;;;;;;9.43;3.17;;;;;;;;;;6197439;28;20232;-67
2022/05/14 12:00:56;;;;;;;9.77;3.35;;;;;;;;;;6198405;28;20335;-70
2022/05/14 12:04:21;;;;;;;4.05;2.60;;;;;;;;;;6209007;28;20384;-74
2022/05/14 12:07:56;;;;;;;6.53;3.13;;;;;;;;;;6201063;28;20759;-70
2022/05/14 12:11:23;;;;;;;8.02;2.88;;;;;;;;;;6198869;28;20304;-70
2022/05/14 12:14:43;;;;;;;7.60;3.35;;;;;;;;;;6203663;28;20312;-70
2022/05/14 12:18:04;;;;;;;7.72;3.63;;;;;;;;;;6199777;28;20693;-71
2022/05/14 12:21:26;;;;;;;6.18;3.33;;;;;;;;;;6197246;28;20230;-72
2022/05/14 12:24:54;;;;;;;8.35;2.78;;;;;;;;;;6201428;28;20300;-71
2022/05/14 12:28:19;;;;;;;4.75;2.72;;;;;;;;;;6199720;28;20233;-71
2022/05/14 12:35:19;;;;;;;5.95;2.67;;;;;;;;;;6198943;28;20229;-71
2022/05/14 12:38:41;;;;;;;8.10;2.95;;;;;;;;;;6200557;28;20237;-71
2022/05/14 12:42:03;;;;;;;7.82;3.50;;;;;;;;;;6202486;28;20221;-72
2022/05/14 12:45:35;;;;;;;6.18;3.05;;;;;;;;;;6196983;28;20831;-72
2022/05/14 12:48:57;;;;;;;8.43;3.22;;;;;;;;;;6198121;28;20233;-71
2022/05/14 12:52:18;;;;;;;7.85;3.45;;;;;;;;;;6202009;28;20271;-72
2022/05/14 12:55:40;;;;;;;9.20;3.80;;;;;;;;;;6195331;28;20242;-72
2022/05/14 12:59:01;;;;;;;16.30;4.50;;;;;;;;;;6189840;28;20232;-73
2022/05/14 13:02:24;;;;;;;6.15;3.13;;;;;;;;;;6194529;28;20225;-74
2022/05/14 13:05:48;;;;;;;8.18;3.97;;;;;;;;;;6200339;28;20562;-74
2022/05/14 13:09:10;;;;;;;5.07;3.08;;;;;;;;;;6199731;28;20727;-73
2022/05/14 13:12:32;;;;;;;5.13;2.55;;;;;;;;;;6202656;28;20220;-76
2022/05/14 13:15:55;;;;;;;8.95;3.28;;;;;;;;;;6219357;28;20504;-76
2022/05/14 13:19:21;;;;;;;6.43;3.10;;;;;;;;;;6193663;28;20255;-68
2022/05/14 13:22:42;;;;;;;6.72;2.38;;;;;;;;;;6203159;28;21719;-75
2022/05/14 13:26:04;;;;;;;8.20;3.00;;;;;;;;;;6201183;28;20240;-74
2022/05/14 13:29:25;;;;;;;6.22;2.58;;;;;;;;;;6201924;28;20224;-75
2022/05/14 13:32:45;;;;;;;6.93;3.47;;;;;;;;;;6202500;28;20969;-73
2022/05/14 13:39:54;;;;;;;5.32;1.95;;;;;;;;;;6199343;28;20304;-75
2022/05/14 13:43:17;;;;;;;5.63;3.25;;;;;;;;;;6202462;28;20340;-74
2022/05/14 13:46:41;;;;;;;5.10;2.75;;;;;;;;;;6203188;28;20578;-74
2022/05/14 13:50:03;;;;;;;8.30;2.85;;;;;;;;;;6198274;28;20216;-74
2022/05/14 13:53:29;;;;;;;4.88;2.63;;;;;;;;;;6208544;28;20225;-74
2022/05/14 13:56:59;;;;;;;7.88;2.83;;;;;;;;;;6185401;28;20262;-73
2022/05/14 14:00:21;;;;;;;8.07;2.75;;;;;;;;;;6204485;28;20240;-74
2022/05/14 14:03:43;;;;;;;4.00;2.50;;;;;;;;;;6198396;28;20296;-68
2022/05/14 14:07:06;;;;;;;4.65;2.47;;;;;;;;;;6206470;28;20234;-70
2022/05/14 14:10:32;;;;;;;7.72;2.22;;;;;;;;;;6202121;28;20286;-72
2022/05/14 14:13:53;;;;;;;7.53;2.05;;;;;;;;;;6199765;28;20226;-68
2022/05/14 14:17:13;;;;;;;6.43;3.05;;;;;;;;;;6201847;28;20233;-67
2022/05/14 14:20:35;;;;;;;6.93;2.38;;;;;;;;;;6210295;28;20233;-71
2022/05/14 14:23:57;;;;;;;7.00;3.22;;;;;;;;;;6202139;28;20229;-70
2022/05/14 14:27:19;;;;;;;4.53;2.28;;;;;;;;;;6206271;28;22107;-71
2022/05/14 14:30:39;;;;;;;4.28;1.77;;;;;;;;;;6197744;28;20237;-70
2022/05/14 14:34:00;;;;;;;6.13;2.22;;;;;;;;;;6194169;28;20855;-67
2022/05/14 14:37:20;;;;;;;8.05;2.72;;;;;;;;;;6201143;28;20835;-70
2022/05/14 14:40:41;;;;;;;5.28;2.50;;;;;;;;;;6192814;28;20619;-69
2022/05/14 14:44:03;;;;;;;4.15;1.80;;;;;;;;;;6199603;28;20221;-69
2022/05/14 14:47:24;;;;;;;4.05;2.17;;;;;;;;;;6202889;28;21940;-70
2022/05/14 14:50:45;;;;;;;3.33;1.88;;;;;;;;;;6207378;28;20233;-70
2022/05/14 14:54:06;;;;;;;6.78;1.88;;;;;;;;;;6208802;28;20260;-70
2022/05/14 14:57:27;;;;;;;6.32;1.95;;;;;;;;;;6204114;28;20630;-72
2022/05/14 15:00:51;;;;;;;3.83;1.50;;;;;;;;;;6208606;28;20256;-73
2022/05/14 15:04:14;;;;;;;4.03;1.98;;;;;;;;;;6204242;28;20258;-79
2022/05/14 15:07:35;;;;;;;5.65;2.63;;;;;;;;;;6206518;28;20241;-76
2022/05/14 15:10:56;;;;;;;4.30;1.85;;;;;;;;;;6205191;28;20226;-79
2022/05/14 15:14:18;;;;;;;5.53;2.45;;;;;;;;;;6230376;28;20236;-79
2022/05/14 15:17:40;;;;;;;3.25;2.33;;;;;;;;;;6203683;28;20236;-80
2022/05/14 15:21:02;;;;;;;5.55;2.20;;;;;;;;;;6208582;28;20829;-77
2022/05/14 15:24:22;;;;;;;3.53;2.17;;;;;;;;;;6208872;28;20600;-71
2022/05/14 15:27:43;;;;;;;4.88;2.25;;;;;;;;;;6205655;28;20312;-72
2022/05/14 15:31:07;;;;;;;5.45;2.08;;;;;;;;;;6205468;28;20233;-71
2022/05/14 15:34:29;;;;;;;3.22;2.03;;;;;;;;;;6202195;28;20230;-73
2022/05/14 15:37:51;;;;;;;4.65;2.08;;;;;;;;;;6203479;28;20232;-76
2022/05/14 15:41:12;;;;;;;4.05;1.77;;;;;;;;;;6209457;28;20237;-71
2022/05/14 15:44:33;;;;;;;2.85;1.77;;;;;;;;;;6197513;28;20343;-71
2022/05/14 15:47:55;;;;;;;5.65;2.20;;;;;;;;;;6191418;28;20253;-76
2022/05/14 15:51:22;;;;;;;6.90;2.08;;;;;;;;;;6203247;28;20232;-72
2022/05/14 15:54:43;;;;;;;4.28;2.55;;;;;;;;;;6199863;28;20220;-73
2022/05/14 15:58:04;;;;;;;5.65;2.28;;;;;;;;;;6191415;28;20320;-70
2022/05/14 16:01:24;;;;;;;5.43;3.13;;;;;;;;;;6196002;28;20266;-78
2022/05/14 16:04:45;;;;;;;5.00;2.53;;;;;;;;;;6200744;28;20244;-76
2022/05/14 16:08:07;;;;;;;5.22;2.42;;;;;;;;;;6200252;28;20229;-75
2022/05/14 16:18:46;;;;;;;3.35;1.98;;;;;;;;;;6197986;28;22117;-77
2022/05/14 16:22:07;;;;;;;4.65;2.38;;;;;;;;;;6199439;28;22257;-76
2022/05/14 16:25:28;;;;;;;4.30;2.22;;;;;;;;;;6200700;28;20233;-75
2022/05/14 16:28:49;;;;;;;5.82;2.45;;;;;;;;;;6199301;28;20221;-74
2022/05/14 16:32:10;;;;;;;8.70;3.28;;;;;;;;;;6196648;28;20240;-75
2022/05/14 16:35:31;;;;;;;5.95;3.22;;;;;;;;;;6213216;28;20229;-74
2022/05/14 16:38:52;;;;;;;6.30;2.85;;;;;;;;;;6200518;28;20241;-75
2022/05/14 16:42:14;;;;;;;9.60;7.43;;;;;;;;;;6190212;28;20229;-75
2022/05/14 16:45:37;;;;;;;70.90;65.57;;;;;;;;;;6205064;28;20850;-76
2022/05/14 16:48:58;;;;;;;93.72;87.28;;;;;;;;;;6198264;28;20511;-72
2022/05/14 16:52:19;;;;;;;608.00;559.53;;;;;;;;;;6194824;28;20779;-69
2022/05/14 16:55:39;;;;;;;437.20;398.88;;;;;;;;;;6208440;28;20237;-71
2022/05/14 16:59:01;;;;;;;135.20;120.72;;;;;;;;;;6193480;28;20233;-76
2022/05/14 17:02:22;;;;;;;8.07;7.28;;;;;;;;;;6187634;28;20229;-76
2022/05/14 17:05:43;;;;;;;6.80;4.35;;;;;;;;;;6193907;28;20639;-77
2022/05/14 17:09:04;;;;;;;9.57;3.58;;;;;;;;;;6193400;28;20232;-76
2022/05/14 17:12:25;;;;;;;6.72;3.15;;;;;;;;;;6199955;28;20327;-76
2022/05/14 17:15:48;;;;;;;5.30;3.22;;;;;;;;;;6205256;28;20729;-76
2022/05/14 17:19:09;;;;;;;6.88;3.10;;;;;;;;;;6202206;28;20233;-75
2022/05/14 17:22:29;;;;;;;7.18;3.17;;;;;;;;;;6200673;28;20674;-75
2022/05/14 17:25:50;;;;;;;6.75;3.13;;;;;;;;;;6198296;28;20506;-76
2022/05/14 17:29:11;;;;;;;6.18;3.35;;;;;;;;;;6201601;28;20498;-77
2022/05/14 17:32:33;;;;;;;6.28;2.92;;;;;;;;;;6201352;28;20225;-75
2022/05/14 17:35:54;;;;;;;4.93;2.65;;;;;;;;;;6196268;28;20259;-75
2022/05/14 17:42:52;;;;;;;4.97;2.60;;;;;;;;;;6182074;28;20221;-76
2022/05/14 17:46:13;;;;;;;6.40;2.75;;;;;;;;;;6201397;28;20241;-78
2022/05/14 17:49:36;;;;;;;5.80;2.60;;;;;;;;;;6199112;28;20325;-78
2022/05/14 17:52:57;;;;;;;8.30;2.70;;;;;;;;;;6203963;28;20233;-78
2022/05/14 17:56:18;;;;;;;4.70;2.60;;;;;;;;;;6210582;28;20742;-78
2022/05/14 17:59:39;;;;;;;7.95;3.92;;;;;;;;;;6207823;28;20252;-79
2022/05/14 18:03:00;;;;;;;7.93;2.67;;;;;;;;;;6211475;28;20228;-78
2022/05/14 18:06:22;;;;;;;9.63;4.40;;;;;;;;;;6207346;28;20240;-78
2022/05/14 18:09:43;;;;;;;8.20;3.92;;;;;;;;;;6205991;28;20224;-79
2022/05/14 18:13:03;;;;;;;7.15;5.07;;;;;;;;;;6216028;28;20237;-77
2022/05/14 18:16:25;;;;;;;5.32;2.78;;;;;;;;;;6212231;28;20253;-79
2022/05/14 18:19:47;;;;;;;7.90;3.42;;;;;;;;;;6215900;28;20587;-79
2022/05/14 18:23:08;;;;;;;7.20;3.38;;;;;;;;;;6202244;28;21492;-79
2022/05/14 18:26:30;;;;;;;8.00;3.20;;;;;;;;;;6206979;28;20233;-76
2022/05/14 18:29:52;;;;;;;9.35;4.00;;;;;;;;;;6203342;28;20379;-78
2022/05/14 18:33:17;;;;;;;9.45;4.55;;;;;;;;;;6203418;28;20229;-80
2022/05/14 18:36:39;;;;;;;7.35;3.60;;;;;;;;;;6207672;28;20225;-79
2022/05/14 18:40:04;;;;;;;9.02;3.75;;;;;;;;;;6208645;28;20511;-80
2022/05/14 18:43:25;;;;;;;8.30;3.75;;;;;;;;;;6204001;28;20240;-77
2022/05/14 18:46:46;;;;;;;9.43;3.95;;;;;;;;;;6211526;28;20229;-77
2022/05/14 18:50:07;;;;;;;9.07;4.55;;;;;;;;;;6212406;28;20594;-76
2022/05/14 18:53:28;;;;;;;10.65;4.28;;;;;;;;;;6210678;28;20477;-78
2022/05/14 18:56:49;;;;;;;10.68;4.70;;;;;;;;;;6213427;28;20866;-77
2022/05/14 19:00:11;;;;;;;10.52;4.70;;;;;;;;;;6209214;28;20237;-78
2022/05/14 19:03:31;;;;;;;11.65;5.00;;;;;;;;;;6213601;28;20237;-78
2022/05/14 19:10:35;;;;;;;14.70;8.13;;;;;;;;;;6208089;28;20217;-78
2022/05/14 19:13:58;;;;;;;12.90;5.70;;;;;;;;;;6211297;28;20233;-79
2022/05/14 19:17:20;;;;;;;10.43;5.05;;;;;;;;;;6214442;28;20316;-79
2022/05/14 19:20:41;;;;;;;10.13;5.03;;;;;;;;;;6204312;28;20327;-77
2022/05/14 19:24:02;;;;;;;11.75;3.65;;;;;;;;;;6206327;28;20332;-77
2022/05/14 19:27:23;;;;;;;10.68;4.75;;;;;;;;;;6208736;28;20229;-77
2022/05/14 19:30:45;;;;;;;9.75;4.88;;;;;;;;;;6208122;28;20224;-78
2022/05/14 19:34:06;;;;;;;15.68;6.25;;;;;;;;;;6207155;28;20237;-76
2022/05/14 19:37:30;;;;;;;10.95;5.82;;;;;;;;;;6208959;28;20229;-79
2022/05/14 19:40:54;;;;;;;14.80;5.82;;;;;;;;;;6217689;28;20240;-77
2022/05/14 19:44:20;;;;;;;9.25;5.55;;;;;;;;;;6208159;28;20233;-78
2022/05/14 19:47:42;;;;;;;25.87;21.37;;;;;;;;;;6209338;28;20233;-78
2022/05/14 19:51:03;;;;;;;13.00;7.10;;;;;;;;;;6207972;28;20217;-81
2022/05/14 19:54:24;;;;;;;9.17;4.60;;;;;;;;;;6204207;28;20241;-79
2022/05/14 19:57:45;;;;;;;11.75;6.50;;;;;;;;;;6212589;28;20646;-79
2022/05/14 20:01:05;;;;;;;12.65;4.78;;;;;;;;;;6200643;28;20249;-79
2022/05/14 20:04:30;;;;;;;12.82;5.68;;;;;;;;;;6198981;28;20221;-79
2022/05/14 20:07:50;;;;;;;14.23;5.03;;;;;;;;;;6194052;28;20230;-78
2022/05/14 20:11:11;;;;;;;11.38;4.85;;;;;;;;;;6196149;28;20635;-79
2022/05/14 20:14:32;;;;;;;9.40;4.83;;;;;;;;;;6197780;28;20228;-78
2022/05/14 20:21:32;;;;;;;20.50;7.07;;;;;;;;;;6190715;28;20935;-77
2022/05/14 20:24:52;;;;;;;15.07;4.93;;;;;;;;;;6198446;28;20234;-77
2022/05/14 20:28:13;;;;;;;26.07;19.43;;;;;;;;;;6201193;28;20237;-77
2022/05/14 20:31:34;;;;;;;37.63;33.33;;;;;;;;;;6205708;28;20229;-77
2022/05/14 20:34:55;;;;;;;21.37;11.57;;;;;;;;;;6198433;28;20241;-78
2022/05/14 20:38:16;;;;;;;14.77;6.80;;;;;;;;;;6203828;28;20260;-79
2022/05/14 20:41:37;;;;;;;13.53;5.67;;;;;;;;;;6207524;28;20221;-79
2022/05/14 20:44:58;;;;;;;11.67;5.97;;;;;;;;;;6213961;28;20232;-77